Time;durP1;ratioP1;P1;durP2;ratioP2;P2;SDS_P1;SDS_P2;PMS_P1;PMS_P2;Temp;Humidity;BMP_temperature;BMP_pressure;BME280_temperature;BME280_humidity;BME280_pressure;Samples;Min_cycle;Max_cycle;Signal;HPM_P1;HPM_P2
2023/06/20 00:04:39;;;;;;;4.88;4.45;;;;;;;22.82;41.54;100115.59;20805722;28;20208;-75
2023/06/20 00:14:42;;;;;;;5.43;4.30;;;;;;;23.69;39.83;100111.72;20733913;28;20233;-75
2023/06/20 00:24:44;;;;;;;6.93;4.60;;;;;;;23.52;40.33;100104.88;20747706;28;20220;-75
2023/06/20 00:34:46;;;;;;;7.22;5.20;;;;;;;23.13;41.10;100101.47;20740578;28;20213;-75
2023/06/20 00:44:50;;;;;;;6.93;4.85;;;;;;;22.51;43.04;100105.09;20705780;28;20506;-75
2023/06/20 00:54:52;;;;;;;7.45;5.43;;;;;;;22.64;42.29;100103.41;20737629;28;20182;-75
2023/06/20 01:04:54;;;;;;;6.07;5.05;;;;;;;22.55;42.89;100100.16;20720956;28;20233;-75
2023/06/20 01:15:21;;;;;;;7.75;5.75;;;;;;;22.35;43.24;100099.81;20723763;28;20518;-75
2023/06/20 01:26:02;;;;;;;8.93;5.80;;;;;;;22.63;42.87;100098.06;20719384;28;20271;-75
2023/06/20 01:36:06;;;;;;;9.93;5.97;;;;;;;22.82;42.19;100075.44;20767379;28;20213;-75
2023/06/20 01:46:10;;;;;;;11.02;6.03;;;;;;;22.58;43.84;100073.53;20717742;28;20267;-75
2023/06/20 01:56:13;;;;;;;8.57;6.40;;;;;;;22.40;43.66;100075.66;20750266;28;20185;-76
2023/06/20 02:06:15;;;;;;;6.18;5.47;;;;;;;22.43;44.27;100075.66;20742203;28;20213;-75
2023/06/20 02:16:21;;;;;;;7.07;6.30;;;;;;;22.25;50.53;100071.19;20783726;28;20197;-76
2023/06/20 02:26:29;;;;;;;6.15;5.55;;;;;;;21.21;54.58;100090.53;20834530;28;20331;-75
2023/06/20 02:36:31;;;;;;;5.30;4.80;;;;;;;21.81;52.76;100095.47;20846918;28;20216;-76
2023/06/20 02:46:44;;;;;;;6.32;5.45;;;;;;;22.21;51.40;100096.19;20791989;28;20569;-75
2023/06/20 02:56:52;;;;;;;7.95;5.78;;;;;;;22.00;52.06;100086.41;20836738;28;20196;-75
2023/06/20 03:06:56;;;;;;;7.00;6.30;;;;;;;21.76;54.42;100088.06;20829199;28;20228;-76
2023/06/20 03:16:59;;;;;;;10.15;7.35;;;;;;;21.56;56.29;100094.66;20848499;28;20234;-76
2023/06/20 03:27:02;;;;;;;9.30;7.55;;;;;;;21.34;58.48;100108.94;20852470;28;20224;-77
2023/06/20 03:37:05;;;;;;;9.25;8.23;;;;;;;21.35;57.56;100121.22;20855943;28;20270;-75
2023/06/20 03:47:07;;;;;;;9.95;7.88;;;;;;;21.35;59.09;100113.47;20841337;28;20217;-76
2023/06/20 03:57:10;;;;;;;7.82;7.05;;;;;;;21.08;59.90;100126.47;20814959;28;20193;-77
2023/06/20 04:07:13;;;;;;;8.30;7.50;;;;;;;21.04;60.58;100120.72;20847651;28;20232;-75
2023/06/20 04:17:15;;;;;;;9.93;7.22;;;;;;;21.08;61.18;100120.75;20806182;28;20196;-79
2023/06/20 04:27:18;;;;;;;10.27;6.45;;;;;;;21.50;57.53;100107.72;20822200;28;20221;-75
2023/06/20 04:37:29;;;;;;;7.80;7.10;;;;;;;21.49;59.23;100106.09;20793256;28;20221;-75
2023/06/20 04:47:34;;;;;;;11.02;8.07;;;;;;;21.46;61.71;100110.59;20803928;28;20306;-75
2023/06/20 04:57:37;;;;;;;13.98;10.10;;;;;;;21.21;59.95;100119.16;20834320;28;20524;-76
2023/06/20 05:07:42;;;;;;;10.90;9.80;;;;;;;21.92;58.01;100124.91;20856955;28;20705;-79
2023/06/20 05:17:45;;;;;;;6.53;5.78;;;;;;;21.62;55.83;100122.44;20845835;28;21717;-79
2023/06/20 05:27:48;;;;;;;8.43;7.28;;;;;;;21.97;58.13;100138.81;20783375;28;20682;-76
2023/06/20 05:37:50;;;;;;;9.48;6.05;;;;;;;22.20;56.59;100137.56;20814997;28;20205;-76
2023/06/20 05:47:53;;;;;;;7.72;5.57;;;;;;;22.12;54.30;100145.34;20841858;28;20224;-76
2023/06/20 05:57:55;;;;;;;7.35;5.97;;;;;;;22.00;54.48;100152.31;20861789;28;20209;-76
2023/06/20 06:07:58;;;;;;;8.75;5.95;;;;;;;22.64;52.75;100132.09;20829611;28;20282;-76
2023/06/20 06:18:00;;;;;;;7.30;5.95;;;;;;;22.63;52.63;100152.56;20830022;28;21278;-76
2023/06/20 06:28:03;;;;;;;6.72;5.20;;;;;;;22.86;54.12;100145.06;20820589;28;20236;-76
2023/06/20 06:38:08;;;;;;;5.78;5.25;;;;;;;22.72;53.54;100156.66;20791628;28;20247;-76
2023/06/20 06:48:11;;;;;;;7.35;5.25;;;;;;;22.26;54.33;100162.50;20807312;28;20221;-76
2023/06/20 06:58:15;;;;;;;6.63;5.72;;;;;;;22.99;51.69;100159.78;20803359;28;20254;-76
2023/06/20 07:08:18;;;;;;;7.15;5.32;;;;;;;22.11;52.63;100150.25;20777395;28;20228;-76
2023/06/20 07:18:20;;;;;;;7.40;4.90;;;;;;;22.68;51.82;100132.88;20769837;28;20201;-76
2023/06/20 07:28:25;;;;;;;7.15;4.80;;;;;;;22.74;49.74;100128.34;20818755;28;20243;-79
2023/06/20 07:38:27;;;;;;;5.72;4.43;;;;;;;23.43;46.16;100115.22;20822653;28;20263;-76
2023/06/20 07:48:29;;;;;;;8.18;4.55;;;;;;;23.67;46.00;100108.47;20810604;28;20208;-77
2023/06/20 07:58:32;;;;;;;4.45;3.88;;;;;;;24.18;44.39;100090.31;20808628;28;20188;-77
2023/06/20 08:08:34;;;;;;;7.57;4.05;;;;;;;24.71;42.95;100062.13;20818849;28;20208;-76
2023/06/20 08:18:37;;;;;;;6.88;4.72;;;;;;;23.47;47.11;100070.88;20810611;28;20238;-76
2023/06/20 08:28:39;;;;;;;6.60;4.30;;;;;;;24.71;43.35;100060.06;20796479;28;20212;-78
2023/06/20 08:38:41;;;;;;;4.60;4.20;;;;;;;24.76;44.34;100062.47;20815381;28;20212;-78
2023/06/20 08:48:44;;;;;;;4.88;4.03;;;;;;;24.80;43.52;100071.88;20835709;28;20239;-77
2023/06/20 08:58:46;;;;;;;11.57;4.57;;;;;;;25.72;42.27;100063.03;20771906;28;20201;-76
2023/06/20 09:08:49;;;;;;;5.55;4.07;;;;;;;24.81;41.56;100053.31;20788075;28;20279;-76
2023/06/20 09:18:57;;;;;;;5.00;3.03;;;;;;;25.01;41.49;100052.63;20766927;28;20577;-78
2023/06/20 09:29:09;;;;;;;4.28;3.05;;;;;;;25.38;40.15;100046.69;20843545;28;20224;-76
2023/06/20 09:39:17;;;;;;;3.75;3.40;;;;;;;26.12;41.47;100037.91;20826528;28;20211;-76
2023/06/20 09:49:19;;;;;;;3.53;3.22;;;;;;;25.86;38.91;100034.72;20810221;28;20255;-76
2023/06/20 09:59:24;;;;;;;2.88;2.63;;;;;;;26.16;38.57;100039.47;20817114;28;20193;-76
2023/06/20 10:09:28;;;;;;;6.30;2.85;;;;;;;26.85;38.01;100037.59;20816033;28;20220;-76
2023/06/20 10:19:46;;;;;;;2.88;2.67;;;;;;;27.08;36.58;100027.97;20832383;28;20176;-79
2023/06/20 10:29:48;;;;;;;2.75;2.35;;;;;;;27.39;35.07;100025.56;20826808;28;20216;-77
2023/06/20 10:39:55;;;;;;;3.15;2.95;;;;;;;26.21;37.49;100032.38;20803651;28;20267;-76
2023/06/20 10:49:57;;;;;;;2.30;2.15;;;;;;;26.68;36.12;100009.91;20838065;28;20671;-75
2023/06/20 11:00:07;;;;;;;3.60;2.70;;;;;;;28.26;33.77;99990.94;20834059;28;20192;-75
2023/06/20 11:10:13;;;;;;;4.13;2.65;;;;;;;27.72;34.19;99994.50;20850431;28;20213;-76
2023/06/20 11:20:19;;;;;;;4.03;2.53;;;;;;;27.43;33.63;99985.81;20836762;28;20193;-76
2023/06/20 11:30:28;;;;;;;2.92;2.72;;;;;;;28.01;33.25;99980.06;20839438;28;20220;-76
2023/06/20 11:40:31;;;;;;;2.60;2.40;;;;;;;28.38;33.45;99975.69;20828599;28;20197;-77
2023/06/20 11:50:33;;;;;;;2.25;2.05;;;;;;;27.53;32.64;99967.38;20800144;28;20491;-79
2023/06/20 12:00:35;;;;;;;2.60;2.40;;;;;;;28.30;32.10;99959.81;20805172;28;20201;-78
2023/06/20 12:10:39;;;;;;;2.40;2.20;;;;;;;29.30;31.31;99948.69;20822726;28;20699;-80
2023/06/20 12:20:41;;;;;;;2.50;2.30;;;;;;;28.92;31.88;99952.44;20809248;28;20192;-80
2023/06/20 12:31:04;;;;;;;2.25;2.15;;;;;;;29.69;30.26;99948.06;20825927;28;20622;-81
2023/06/20 12:41:06;;;;;;;2.88;2.15;;;;;;;30.35;28.63;99934.41;20823038;28;20215;-80
2023/06/20 12:51:08;;;;;;;2.60;2.40;;;;;;;30.10;29.03;99937.44;20835395;28;20707;-81
2023/06/20 13:01:10;;;;;;;2.85;2.65;;;;;;;29.17;30.89;99935.00;20853414;28;20215;-81
2023/06/20 13:11:14;;;;;;;2.28;2.00;;;;;;;30.45;28.26;99912.81;20831371;28;20228;-81
2023/06/20 13:21:16;;;;;;;2.97;2.63;;;;;;;28.69;30.72;99920.94;20806452;28;20207;-80
2023/06/20 13:31:19;;;;;;;2.45;2.25;;;;;;;30.79;29.58;99902.31;20826335;28;20213;-80
2023/06/20 13:41:21;;;;;;;3.03;2.83;;;;;;;30.84;28.02;99893.78;20813434;28;20246;-80
2023/06/20 13:51:23;;;;;;;3.60;2.30;;;;;;;29.57;28.96;99902.53;20824835;28;20228;-80
2023/06/20 14:01:26;;;;;;;3.20;2.90;;;;;;;30.41;28.35;99900.53;20832871;28;20602;-80
2023/06/20 14:11:28;;;;;;;2.83;2.45;;;;;;;28.86;31.23;99884.78;20844083;28;20637;-79
2023/06/20 14:21:31;;;;;;;3.03;2.83;;;;;;;30.97;29.29;99861.69;20843122;28;20263;-79
2023/06/20 14:31:33;;;;;;;2.83;2.63;;;;;;;30.96;28.38;99860.06;20834399;28;20637;-80
2023/06/20 14:41:36;;;;;;;2.70;2.50;;;;;;;30.07;29.02;99849.25;20819362;28;20586;-80
2023/06/20 14:51:38;;;;;;;3.40;2.42;;;;;;;30.57;28.22;99841.41;20835282;28;20275;-80
2023/06/20 15:01:42;;;;;;;3.53;3.30;;;;;;;30.31;28.56;99855.34;20814331;28;20211;-80
2023/06/20 15:11:46;;;;;;;3.28;3.00;;;;;;;31.17;27.56;99812.63;20814673;28;20542;-81
2023/06/20 15:21:48;;;;;;;3.60;2.95;;;;;;;30.84;28.53;99823.25;20826086;28;20585;-84
2023/06/20 15:31:51;;;;;;;4.50;3.38;;;;;;;30.19;29.07;99830.94;20843959;28;20821;-77
2023/06/20 15:41:53;;;;;;;3.50;3.20;;;;;;;30.23;29.87;99825.00;20844411;28;20245;-76
2023/06/20 15:51:56;;;;;;;3.72;3.10;;;;;;;30.18;30.48;99806.09;20804981;28;20216;-83
2023/06/20 16:01:58;;;;;;;3.00;2.80;;;;;;;30.63;29.54;99784.34;20806126;28;20588;-80
2023/06/20 16:12:01;;;;;;;3.53;3.22;;;;;;;30.11;30.80;99779.47;20814464;28;20232;-80
2023/06/20 16:22:03;;;;;;;4.53;3.00;;;;;;;29.67;30.29;99782.44;20769623;28;20602;-83
2023/06/20 16:32:06;;;;;;;3.08;2.80;;;;;;;29.48;31.51;99783.63;20784506;28;20283;-80
2023/06/20 16:42:09;;;;;;;3.03;2.83;;;;;;;29.37;31.57;99777.41;20792651;28;20247;-79
2023/06/20 16:52:12;;;;;;;3.35;2.60;;;;;;;29.53;30.97;99771.38;20815650;28;20270;-80
2023/06/20 17:02:14;;;;;;;3.83;2.65;;;;;;;28.67;31.94;99784.50;20833663;28;20188;-76
2023/06/20 17:12:17;;;;;;;6.13;3.30;;;;;;;28.56;31.15;99779.06;20803972;28;20244;-79
2023/06/20 17:22:19;;;;;;;5.55;3.03;;;;;;;28.90;30.84;99772.50;20821000;28;20257;-81
2023/06/20 17:32:21;;;;;;;3.58;3.15;;;;;;;28.93;30.94;99768.69;20834438;28;20224;-80
2023/06/20 17:42:23;;;;;;;3.47;2.80;;;;;;;29.01;30.96;99760.53;20873928;28;20245;-83
2023/06/20 17:52:26;;;;;;;3.22;2.92;;;;;;;28.57;31.54;99762.53;20824011;28;20361;-81
2023/06/20 18:14:55;;;;;;;4.25;3.08;;;;;;;28.83;31.49;99769.88;20842888;28;20251;-80
2023/06/20 18:24:58;;;;;;;3.42;3.13;;;;;;;28.83;30.81;99775.69;20799469;28;20224;-81
2023/06/20 18:35:00;;;;;;;4.03;3.63;;;;;;;28.74;32.20;99792.91;20736714;28;20305;-82
2023/06/20 18:45:08;;;;;;;3.33;3.03;;;;;;;28.33;32.01;99794.72;20811202;28;20201;-83
2023/06/20 18:55:12;;;;;;;5.93;2.97;;;;;;;27.88;33.33;99803.63;20786209;28;20747;-81
2023/06/20 19:05:15;;;;;;;4.65;3.33;;;;;;;28.51;32.27;99804.91;20786996;28;20227;-81
2023/06/20 19:15:17;;;;;;;4.47;3.47;;;;;;;27.90;33.27;99823.41;20731314;28;20636;-81
2023/06/20 19:25:20;;;;;;;6.18;3.47;;;;;;;26.30;39.68;99854.56;20700338;28;20196;-82
2023/06/20 19:35:23;;;;;;;5.57;3.47;;;;;;;26.37;40.91;99884.53;20741010;28;20322;-79
2023/06/20 19:45:26;;;;;;;5.30;3.53;;;;;;;26.25;42.21;99895.47;20736094;28;20208;-82
2023/06/20 19:55:37;;;;;;;5.28;4.00;;;;;;;25.72;43.10;99939.88;20692820;28;20233;-82
2023/06/20 20:05:39;;;;;;;5.85;3.92;;;;;;;25.86;43.07;99958.94;20686971;28;20225;-82
2023/06/20 20:15:42;;;;;;;3.65;3.17;;;;;;;25.39;43.80;99970.53;20714689;28;20464;-82
2023/06/20 20:25:44;;;;;;;3.42;3.13;;;;;;;25.02;44.37;99968.72;20739517;28;20259;-82
2023/06/20 20:35:47;;;;;;;5.10;3.33;;;;;;;25.37;43.67;99987.44;20723270;28;20232;-82
2023/06/20 20:45:51;;;;;;;4.13;3.15;;;;;;;25.01;45.25;100000.81;20687385;28;20498;-83
2023/06/20 20:55:54;;;;;;;4.40;3.97;;;;;;;25.48;44.04;100016.88;20721833;28;20248;-82
2023/06/20 21:05:56;;;;;;;6.53;3.88;;;;;;;25.45;44.38;100040.81;20724546;28;20548;-82
2023/06/20 21:15:59;;;;;;;6.53;4.63;;;;;;;25.74;44.21;100051.84;20748012;28;20251;-82
2023/06/20 21:26:01;;;;;;;4.53;3.47;;;;;;;25.60;44.55;100042.16;20776767;28;20196;-81
